Time;durP1;ratioP1;P1;durP2;ratioP2;P2;SDS_P1;SDS_P2;PMS_P1;PMS_P2;Temp;Humidity;BMP_temperature;BMP_pressure;BME280_temperature;BME280_humidity;BME280_pressure;Samples;Min_cycle;Max_cycle;Signal;HPM_P1;HPM_P2
2023/09/01 00:00:12;;;;;;;2.63;0.70;;;;;;;;;;4921372;29;20462;-67
2023/09/01 00:02:39;;;;;;;2.45;0.70;;;;;;;;;;4921165;29;20028;-67
2023/09/01 00:05:05;;;;;;;2.08;0.50;;;;;;;;;;4908307;29;20489;-67
2023/09/01 00:07:31;;;;;;;1.80;0.52;;;;;;;;;;4921380;29;20028;-67
2023/09/01 00:09:57;;;;;;;2.08;0.68;;;;;;;;;;4921015;29;20024;-67
2023/09/01 00:12:23;;;;;;;2.83;0.60;;;;;;;;;;4903763;29;20055;-67
2023/09/01 00:14:49;;;;;;;2.90;0.70;;;;;;;;;;4904200;29;20028;-67
2023/09/01 00:17:15;;;;;;;1.83;0.57;;;;;;;;;;4921108;29;20503;-67
2023/09/01 00:19:41;;;;;;;2.17;0.60;;;;;;;;;;4920961;29;20064;-67
2023/09/01 00:22:07;;;;;;;1.70;0.65;;;;;;;;;;4920889;29;20032;-67
2023/09/01 00:24:33;;;;;;;3.42;0.50;;;;;;;;;;4904010;29;20473;-66
2023/09/01 00:27:00;;;;;;;1.77;0.55;;;;;;;;;;4920405;29;20405;-67
2023/09/01 00:29:26;;;;;;;2.47;0.60;;;;;;;;;;4922721;29;20504;-67
2023/09/01 00:31:52;;;;;;;2.60;0.70;;;;;;;;;;4937080;29;20031;-67
2023/09/01 00:34:18;;;;;;;1.25;0.50;;;;;;;;;;4919811;29;20036;-67
2023/09/01 00:36:44;;;;;;;2.22;0.60;;;;;;;;;;4920736;29;20043;-67
2023/09/01 00:39:10;;;;;;;1.58;0.50;;;;;;;;;;4920678;29;20060;-67
2023/09/01 00:41:36;;;;;;;2.10;0.65;;;;;;;;;;4921682;29;20383;-67
2023/09/01 00:44:05;;;;;;;3.08;0.70;;;;;;;;;;4920920;29;20038;-67
2023/09/01 00:46:32;;;;;;;2.58;0.70;;;;;;;;;;4920561;29;20397;-67
2023/09/01 00:48:58;;;;;;;2.63;0.60;;;;;;;;;;4922268;29;20056;-67
2023/09/01 00:51:28;;;;;;;3.25;0.77;;;;;;;;;;4920617;29;20032;-67
2023/09/01 00:53:54;;;;;;;1.88;0.65;;;;;;;;;;4920632;29;20036;-67
2023/09/01 00:56:20;;;;;;;5.97;0.95;;;;;;;;;;4920167;29;20043;-66
2023/09/01 00:58:46;;;;;;;1.58;0.63;;;;;;;;;;4920917;29;20040;-67
2023/09/01 01:01:12;;;;;;;1.60;0.70;;;;;;;;;;4920577;29;20024;-66
2023/09/01 01:03:38;;;;;;;2.30;0.52;;;;;;;;;;4920530;29;20024;-66
2023/09/01 01:06:09;;;;;;;3.88;0.80;;;;;;;;;;4920143;29;20028;-66
2023/09/01 01:08:41;;;;;;;3.30;0.68;;;;;;;;;;4903659;29;20028;-66
2023/09/01 01:11:22;;;;;;;2.90;0.80;;;;;;;;;;4920026;29;20525;-66
2023/09/01 01:13:51;;;;;;;2.38;0.80;;;;;;;;;;4920661;29;20032;-66
2023/09/01 01:16:17;;;;;;;4.53;0.73;;;;;;;;;;4920576;29;20028;-66
2023/09/01 01:18:45;;;;;;;4.63;0.90;;;;;;;;;;4920377;29;20032;-67
2023/09/01 01:21:12;;;;;;;1.95;0.70;;;;;;;;;;4903396;29;20051;-66
2023/09/01 01:23:39;;;;;;;3.80;0.70;;;;;;;;;;4920497;29;20024;-67
2023/09/01 01:26:05;;;;;;;2.28;0.85;;;;;;;;;;4902761;29;20027;-66
2023/09/01 01:28:33;;;;;;;3.65;0.90;;;;;;;;;;4920389;29;20028;-67
2023/09/01 01:30:59;;;;;;;1.85;0.70;;;;;;;;;;4928615;29;20035;-66
2023/09/01 01:33:43;;;;;;;3.47;0.68;;;;;;;;;;4939139;29;20763;-67
2023/09/01 01:36:28;;;;;;;4.22;0.80;;;;;;;;;;4922253;29;20032;-67
2023/09/01 01:39:06;;;;;;;3.33;0.80;;;;;;;;;;4920343;29;20028;-67
2023/09/01 01:41:52;;;;;;;2.92;0.90;;;;;;;;;;4921740;29;20039;-67
2023/09/01 01:44:19;;;;;;;3.65;0.77;;;;;;;;;;4920514;29;20118;-66
2023/09/01 01:46:45;;;;;;;3.30;0.80;;;;;;;;;;4932862;29;20024;-66
2023/09/01 01:49:11;;;;;;;4.78;0.90;;;;;;;;;;4921867;29;20036;-67
2023/09/01 01:51:37;;;;;;;2.70;0.75;;;;;;;;;;4920106;29;20035;-67
2023/09/01 01:54:05;;;;;;;3.03;0.73;;;;;;;;;;4920170;29;20035;-67
2023/09/01 01:56:31;;;;;;;3.60;0.95;;;;;;;;;;4920088;29;20024;-67
2023/09/01 01:58:57;;;;;;;1.90;1.02;;;;;;;;;;4920852;29;20051;-67
2023/09/01 02:01:23;;;;;;;2.92;0.80;;;;;;;;;;4923569;29;20395;-67
2023/09/01 02:03:49;;;;;;;4.55;0.88;;;;;;;;;;4923733;29;20087;-67
2023/09/01 02:06:15;;;;;;;3.75;1.08;;;;;;;;;;4923145;29;20028;-67
2023/09/01 02:08:41;;;;;;;2.75;1.02;;;;;;;;;;4906489;29;20043;-67
2023/09/01 02:11:07;;;;;;;4.45;0.95;;;;;;;;;;4922779;29;20044;-67
2023/09/01 02:13:33;;;;;;;3.53;0.90;;;;;;;;;;4923300;29;20111;-68
2023/09/01 02:15:59;;;;;;;3.75;0.80;;;;;;;;;;4923358;29;20028;-67
2023/09/01 02:18:25;;;;;;;4.30;0.82;;;;;;;;;;4923225;29;20042;-68
2023/09/01 02:20:51;;;;;;;5.00;0.90;;;;;;;;;;4923200;29;20027;-68
2023/09/01 02:23:17;;;;;;;5.05;0.98;;;;;;;;;;4923142;29;20561;-67
2023/09/01 02:25:46;;;;;;;3.78;1.10;;;;;;;;;;4922638;29;20036;-67
2023/09/01 02:28:12;;;;;;;3.28;1.00;;;;;;;;;;4922920;29;20036;-67
2023/09/01 02:30:39;;;;;;;4.75;0.90;;;;;;;;;;4928845;29;20027;-66
2023/09/01 02:33:05;;;;;;;3.42;0.88;;;;;;;;;;4942001;29;20496;-66
2023/09/01 02:35:31;;;;;;;1.77;0.85;;;;;;;;;;4938370;29;20064;-66
2023/09/01 02:37:57;;;;;;;4.72;0.98;;;;;;;;;;4941161;29;20035;-66
2023/09/01 02:40:24;;;;;;;4.22;1.10;;;;;;;;;;4907168;29;20115;-65
2023/09/01 02:42:51;;;;;;;4.13;0.70;;;;;;;;;;4927951;29;20083;-66
2023/09/01 02:45:18;;;;;;;5.53;1.10;;;;;;;;;;4934927;29;20110;-66
2023/09/01 02:47:44;;;;;;;4.00;0.88;;;;;;;;;;4938061;29;20031;-66
2023/09/01 02:50:10;;;;;;;3.08;1.20;;;;;;;;;;4930407;29;20024;-66
2023/09/01 02:52:36;;;;;;;3.70;0.90;;;;;;;;;;4935868;29;20040;-66
2023/09/01 02:55:06;;;;;;;5.57;1.00;;;;;;;;;;4941646;29;20388;-66
2023/09/01 02:57:32;;;;;;;3.17;0.90;;;;;;;;;;4941336;29;20060;-67
2023/09/01 02:59:58;;;;;;;4.53;0.90;;;;;;;;;;4924526;29;20031;-67
2023/09/01 03:02:24;;;;;;;5.82;1.40;;;;;;;;;;4924166;29;20397;-67
2023/09/01 03:04:52;;;;;;;5.32;1.00;;;;;;;;;;4935788;29;20435;-67
2023/09/01 03:07:18;;;;;;;4.05;1.20;;;;;;;;;;4922487;29;20031;-67
2023/09/01 03:09:44;;;;;;;4.65;0.90;;;;;;;;;;4905366;29;20032;-67
2023/09/01 03:12:10;;;;;;;4.55;0.98;;;;;;;;;;4908035;29;20625;-67
2023/09/01 03:14:36;;;;;;;2.88;0.90;;;;;;;;;;4903591;29;20112;-67
2023/09/01 03:17:04;;;;;;;4.20;1.10;;;;;;;;;;4903067;29;20028;-67
2023/09/01 03:19:31;;;;;;;4.05;0.90;;;;;;;;;;4903379;29;20080;-67
2023/09/01 03:21:56;;;;;;;5.20;1.13;;;;;;;;;;4886150;29;20032;-67
2023/09/01 03:24:22;;;;;;;5.13;1.00;;;;;;;;;;4903493;29;20398;-67
2023/09/01 03:26:48;;;;;;;3.28;0.88;;;;;;;;;;4885864;29;20020;-66
2023/09/01 03:29:14;;;;;;;4.72;0.88;;;;;;;;;;4903479;29;20470;-65
2023/09/01 03:31:40;;;;;;;6.50;1.17;;;;;;;;;;4886431;29;20029;-66
2023/09/01 03:34:10;;;;;;;2.75;1.17;;;;;;;;;;4886528;29;20550;-66
2023/09/01 03:36:36;;;;;;;2.70;0.80;;;;;;;;;;4886219;29;20032;-66
2023/09/01 03:39:03;;;;;;;5.88;1.17;;;;;;;;;;4903389;29;20446;-66
2023/09/01 03:41:29;;;;;;;3.72;0.88;;;;;;;;;;4904251;29;20103;-66
2023/09/01 03:43:55;;;;;;;4.15;0.88;;;;;;;;;;4903043;29;20064;-66
2023/09/01 03:46:20;;;;;;;3.10;0.82;;;;;;;;;;4902550;29;20029;-66
2023/09/01 03:48:46;;;;;;;5.65;1.20;;;;;;;;;;4904482;29;20029;-65
2023/09/01 03:51:16;;;;;;;3.67;0.95;;;;;;;;;;4902789;29;20071;-66
2023/09/01 03:53:42;;;;;;;4.20;1.17;;;;;;;;;;4902939;29;20107;-65
2023/09/01 03:56:15;;;;;;;4.78;1.13;;;;;;;;;;4902465;29;20032;-66
2023/09/01 03:58:41;;;;;;;7.03;1.10;;;;;;;;;;4902758;29;20029;-67
2023/09/01 04:01:14;;;;;;;5.43;1.30;;;;;;;;;;4908597;29;20490;-67
2023/09/01 04:03:40;;;;;;;6.10;1.00;;;;;;;;;;4902820;29;20031;-67
2023/09/01 04:06:07;;;;;;;3.10;0.93;;;;;;;;;;4902475;29;20020;-67
2023/09/01 04:08:34;;;;;;;4.57;1.05;;;;;;;;;;4902570;29;20029;-67
2023/09/01 04:11:00;;;;;;;4.90;1.00;;;;;;;;;;4901979;29;20044;-67
2023/09/01 04:13:26;;;;;;;4.35;0.90;;;;;;;;;;4902427;29;20033;-66
2023/09/01 04:15:52;;;;;;;3.22;1.17;;;;;;;;;;4908867;29;20032;-66
2023/09/01 04:18:18;;;;;;;4.20;1.00;;;;;;;;;;4908381;29;20490;-66
2023/09/01 04:20:51;;;;;;;3.08;1.00;;;;;;;;;;4893328;29;20033;-66
2023/09/01 04:23:17;;;;;;;3.45;1.00;;;;;;;;;;4914184;29;20024;-66
2023/09/01 04:25:46;;;;;;;3.05;0.90;;;;;;;;;;4901731;29;20063;-67
2023/09/01 04:28:13;;;;;;;3.17;0.90;;;;;;;;;;4902350;29;20028;-67
2023/09/01 04:30:39;;;;;;;4.57;1.15;;;;;;;;;;4902297;29;20024;-66
2023/09/01 04:33:07;;;;;;;3.03;0.93;;;;;;;;;;4912049;29;20117;-67
2023/09/01 04:35:33;;;;;;;4.03;0.95;;;;;;;;;;4912010;29;20482;-66
2023/09/01 04:38:00;;;;;;;4.07;1.10;;;;;;;;;;4887719;29;20554;-66
2023/09/01 04:40:26;;;;;;;2.17;0.90;;;;;;;;;;4892650;29;20032;-66
2023/09/01 04:42:52;;;;;;;4.93;0.90;;;;;;;;;;4905191;29;20171;-66
2023/09/01 04:45:19;;;;;;;4.20;0.90;;;;;;;;;;4908432;29;20029;-66
2023/09/01 04:47:45;;;;;;;3.58;0.90;;;;;;;;;;4909002;29;20088;-66
2023/09/01 04:50:11;;;;;;;0.90;0.50;;;;;;;;;;4903133;29;20103;-67
2023/09/01 04:52:37;;;;;;;1.80;0.70;;;;;;;;;;4900337;29;20057;-67
2023/09/01 04:55:04;;;;;;;3.20;0.80;;;;;;;;;;4901446;29;20542;-67
2023/09/01 04:57:30;;;;;;;2.92;0.85;;;;;;;;;;4901382;29;20035;-67
2023/09/01 04:59:56;;;;;;;2.47;0.70;;;;;;;;;;4901931;29;20029;-67
2023/09/01 05:02:22;;;;;;;1.52;0.60;;;;;;;;;;4901750;29;20211;-67
2023/09/01 05:04:48;;;;;;;2.97;0.47;;;;;;;;;;4901677;29;20025;-68
2023/09/01 05:07:14;;;;;;;2.50;0.70;;;;;;;;;;4884699;29;20032;-67
2023/09/01 05:09:40;;;;;;;2.50;0.52;;;;;;;;;;4901776;29;20025;-67
2023/09/01 05:12:06;;;;;;;1.33;0.60;;;;;;;;;;4901420;29;20067;-67
2023/09/01 05:14:32;;;;;;;3.55;0.85;;;;;;;;;;4884812;29;20033;-67
2023/09/01 05:16:58;;;;;;;2.88;0.70;;;;;;;;;;4884609;29;20067;-67
2023/09/01 05:19:24;;;;;;;4.40;0.70;;;;;;;;;;4901084;29;20769;-67
2023/09/01 05:21:50;;;;;;;1.75;0.80;;;;;;;;;;4901588;29;20360;-67
2023/09/01 05:24:16;;;;;;;1.63;0.50;;;;;;;;;;4899081;29;20025;-67
2023/09/01 05:26:42;;;;;;;1.58;0.55;;;;;;;;;;4901396;29;20020;-68
2023/09/01 05:29:08;;;;;;;3.17;0.95;;;;;;;;;;4884640;29;20037;-67
2023/09/01 05:31:34;;;;;;;3.45;0.70;;;;;;;;;;4901308;29;20076;-67
2023/09/01 05:34:00;;;;;;;2.10;0.75;;;;;;;;;;4885490;29;20065;-67
2023/09/01 05:36:26;;;;;;;3.33;0.80;;;;;;;;;;4905210;29;20029;-67
2023/09/01 05:38:52;;;;;;;2.75;0.73;;;;;;;;;;4887976;29;20059;-68
2023/09/01 05:41:18;;;;;;;2.28;0.75;;;;;;;;;;4918155;29;20022;-68
2023/09/01 05:43:44;;;;;;;2.22;0.73;;;;;;;;;;4921893;29;20096;-67
2023/09/01 05:46:10;;;;;;;2.33;0.57;;;;;;;;;;4909641;29;20025;-68
2023/09/01 05:48:36;;;;;;;4.60;0.70;;;;;;;;;;4905821;29;20112;-67
2023/09/01 05:51:03;;;;;;;3.72;0.80;;;;;;;;;;4917116;29;20121;-67
2023/09/01 05:53:29;;;;;;;2.33;0.65;;;;;;;;;;4923738;29;20032;-67
2023/09/01 05:55:55;;;;;;;2.50;0.60;;;;;;;;;;4923110;29;20032;-67
2023/09/01 05:58:21;;;;;;;3.95;0.80;;;;;;;;;;4910151;29;20036;-67
2023/09/01 06:00:47;;;;;;;4.43;0.75;;;;;;;;;;4904202;29;20137;-67
2023/09/01 06:03:13;;;;;;;3.30;0.80;;;;;;;;;;4904978;29;20496;-67
2023/09/01 06:05:39;;;;;;;2.00;0.60;;;;;;;;;;4904060;29;20021;-67
2023/09/01 06:08:05;;;;;;;3.10;0.90;;;;;;;;;;4903599;29;20035;-67
2023/09/01 06:10:31;;;;;;;2.35;0.70;;;;;;;;;;4903946;29;20059;-67
2023/09/01 06:12:57;;;;;;;2.00;0.60;;;;;;;;;;4904449;29;20029;-67
2023/09/01 06:15:23;;;;;;;3.33;0.70;;;;;;;;;;4904264;29;20040;-67
2023/09/01 06:17:49;;;;;;;2.08;0.60;;;;;;;;;;4904439;29;20029;-67
2023/09/01 06:20:16;;;;;;;3.70;1.02;;;;;;;;;;4904159;29;20512;-67
2023/09/01 06:22:42;;;;;;;1.83;0.68;;;;;;;;;;4904068;29;20039;-67
2023/09/01 06:25:08;;;;;;;2.85;0.70;;;;;;;;;;4903774;29;20052;-66
2023/09/01 06:27:37;;;;;;;2.92;0.77;;;;;;;;;;4903900;29;20081;-68
2023/09/01 06:30:04;;;;;;;3.90;0.75;;;;;;;;;;4903954;29;20489;-67
2023/09/01 06:32:30;;;;;;;2.72;0.70;;;;;;;;;;4904301;29;20057;-67
2023/09/01 06:34:56;;;;;;;2.38;0.60;;;;;;;;;;4903841;29;20439;-68
2023/09/01 06:37:21;;;;;;;2.58;0.80;;;;;;;;;;4903933;29;20482;-68
2023/09/01 06:39:48;;;;;;;2.38;0.77;;;;;;;;;;4904524;29;20028;-67
2023/09/01 06:42:14;;;;;;;3.83;0.80;;;;;;;;;;4903506;29;20371;-68
2023/09/01 06:44:40;;;;;;;2.50;0.60;;;;;;;;;;4903346;29;20028;-68
2023/09/01 06:47:06;;;;;;;2.63;0.68;;;;;;;;;;4903563;29;20518;-68
2023/09/01 06:49:32;;;;;;;4.20;0.90;;;;;;;;;;4905293;29;20040;-68
2023/09/01 06:51:58;;;;;;;3.38;0.93;;;;;;;;;;4911715;29;20383;-67
2023/09/01 06:54:24;;;;;;;3.28;1.00;;;;;;;;;;4922400;29;20063;-68
2023/09/01 06:56:50;;;;;;;2.30;0.75;;;;;;;;;;4922069;29;20032;-67
2023/09/01 06:59:17;;;;;;;1.48;0.75;;;;;;;;;;4915933;29;20404;-68
2023/09/01 07:01:43;;;;;;;3.63;0.70;;;;;;;;;;4886226;29;20035;-68
2023/09/01 07:04:09;;;;;;;2.88;0.77;;;;;;;;;;4909594;29;20024;-67
2023/09/01 07:06:35;;;;;;;3.35;0.85;;;;;;;;;;4903151;29;20385;-67
2023/09/01 07:09:01;;;;;;;2.83;0.63;;;;;;;;;;4885835;29;20035;-68
2023/09/01 07:11:27;;;;;;;3.65;0.95;;;;;;;;;;4906368;29;20092;-66
2023/09/01 07:13:53;;;;;;;1.80;0.73;;;;;;;;;;4903116;29;20077;-67
2023/09/01 07:16:19;;;;;;;1.92;0.60;;;;;;;;;;4903344;29;20033;-68
2023/09/01 07:18:46;;;;;;;3.50;0.80;;;;;;;;;;4902998;29;20502;-67
2023/09/01 07:21:12;;;;;;;1.40;0.70;;;;;;;;;;4886106;29;20104;-67
2023/09/01 07:23:38;;;;;;;2.20;0.60;;;;;;;;;;4891857;29;20051;-67
2023/09/01 07:26:06;;;;;;;2.42;0.55;;;;;;;;;;4906557;29;20032;-67
2023/09/01 07:28:32;;;;;;;2.70;0.77;;;;;;;;;;4907127;29;20029;-67
2023/09/01 07:30:58;;;;;;;1.88;0.60;;;;;;;;;;4902963;29;20153;-67
2023/09/01 07:33:24;;;;;;;1.48;0.68;;;;;;;;;;4903033;29;20108;-68
2023/09/01 07:35:51;;;;;;;2.67;0.75;;;;;;;;;;4902927;29;20376;-67
2023/09/01 07:38:17;;;;;;;2.83;0.73;;;;;;;;;;4902299;29;20430;-67
2023/09/01 07:40:43;;;;;;;3.00;0.70;;;;;;;;;;4911350;29;20048;-67
2023/09/01 07:43:09;;;;;;;1.38;0.70;;;;;;;;;;4921131;29;20043;-67
2023/09/01 07:45:36;;;;;;;2.25;0.60;;;;;;;;;;4921816;29;20032;-67
2023/09/01 07:48:02;;;;;;;1.80;0.70;;;;;;;;;;4917942;29;20618;-64
2023/09/01 07:50:30;;;;;;;1.45;0.50;;;;;;;;;;4900425;29;20036;-65
2023/09/01 07:52:57;;;;;;;1.70;0.57;;;;;;;;;;4917145;29;20148;-66
2023/09/01 07:55:23;;;;;;;1.80;0.50;;;;;;;;;;4921121;29;20032;-65
2023/09/01 07:57:49;;;;;;;2.20;0.70;;;;;;;;;;4913541;29;20506;-65
2023/09/01 08:00:15;;;;;;;1.40;0.60;;;;;;;;;;4885532;29;20080;-65
2023/09/01 08:02:41;;;;;;;1.40;0.60;;;;;;;;;;4885460;29;20040;-65
2023/09/01 08:05:07;;;;;;;1.40;0.60;;;;;;;;;;4905414;29;20013;-65
2023/09/01 08:07:33;;;;;;;1.85;0.55;;;;;;;;;;4918361;29;20025;-65
2023/09/01 08:10:00;;;;;;;1.23;0.55;;;;;;;;;;4901784;29;20088;-65
2023/09/01 08:12:26;;;;;;;2.10;0.50;;;;;;;;;;4901825;29;20522;-65
2023/09/01 08:14:52;;;;;;;2.90;0.50;;;;;;;;;;4902239;29;20028;-65
2023/09/01 08:17:18;;;;;;;1.85;0.70;;;;;;;;;;4885195;29;20033;-65
2023/09/01 08:19:50;;;;;;;1.63;0.65;;;;;;;;;;4902234;29;20031;-66
2023/09/01 08:22:17;;;;;;;1.50;0.47;;;;;;;;;;4885334;29;20573;-65
2023/09/01 08:24:46;;;;;;;2.00;0.43;;;;;;;;;;4902022;29;20378;-65
2023/09/01 08:27:12;;;;;;;2.05;0.35;;;;;;;;;;4901747;29;20028;-64
2023/09/01 08:29:38;;;;;;;2.25;0.50;;;;;;;;;;4902191;29;20028;-65
2023/09/01 08:32:05;;;;;;;1.88;0.40;;;;;;;;;;4902041;29;20033;-65
2023/09/01 08:34:31;;;;;;;1.52;0.60;;;;;;;;;;4901983;29;20064;-65
2023/09/01 08:36:58;;;;;;;1.58;0.40;;;;;;;;;;4901786;29;20029;-66
2023/09/01 08:39:24;;;;;;;1.42;0.57;;;;;;;;;;4902203;29;20491;-65
2023/09/01 08:41:52;;;;;;;1.20;0.43;;;;;;;;;;4902519;29;20029;-65
2023/09/01 08:44:23;;;;;;;1.52;0.60;;;;;;;;;;4901932;29;20477;-65
2023/09/01 08:46:50;;;;;;;1.63;0.60;;;;;;;;;;4901603;29;20028;-65
2023/09/01 08:49:17;;;;;;;0.98;0.38;;;;;;;;;;4903504;29;20573;-65
2023/09/01 08:51:43;;;;;;;1.40;0.35;;;;;;;;;;4907768;29;20024;-66
2023/09/01 08:54:09;;;;;;;1.85;0.50;;;;;;;;;;4920626;29;20501;-65
2023/09/01 08:56:35;;;;;;;0.82;0.43;;;;;;;;;;4920503;29;20429;-65
2023/09/01 08:59:02;;;;;;;1.77;0.50;;;;;;;;;;4920795;29;20032;-65
2023/09/01 09:01:30;;;;;;;1.00;0.40;;;;;;;;;;4903465;29;20032;-66
2023/09/01 09:03:56;;;;;;;0.70;0.30;;;;;;;;;;4920746;29;20020;-65
2023/09/01 09:06:35;;;;;;;1.10;0.40;;;;;;;;;;4920882;29;20512;-65
2023/09/01 09:09:05;;;;;;;0.82;0.32;;;;;;;;;;4922779;29;20036;-64
2023/09/01 09:11:31;;;;;;;1.10;0.40;;;;;;;;;;4932375;29;20077;-65
2023/09/01 09:13:58;;;;;;;1.27;0.40;;;;;;;;;;4943334;29;20027;-65
2023/09/01 09:16:24;;;;;;;0.52;0.30;;;;;;;;;;4943319;29;20459;-65
2023/09/01 09:18:50;;;;;;;1.08;0.40;;;;;;;;;;4922160;29;20188;-65
2023/09/01 09:21:33;;;;;;;0.93;0.30;;;;;;;;;;4933264;29;20116;-65
2023/09/01 09:24:00;;;;;;;1.25;0.40;;;;;;;;;;4923156;29;20024;-65
2023/09/01 09:26:27;;;;;;;1.70;0.47;;;;;;;;;;4924123;29;20034;-65
2023/09/01 09:28:54;;;;;;;1.63;0.40;;;;;;;;;;4924189;29;20032;-65
2023/09/01 09:31:36;;;;;;;0.73;0.30;;;;;;;;;;4924497;29;20028;-66
2023/09/01 09:34:32;;;;;;;0.47;0.30;;;;;;;;;;4907055;29;20055;-65
2023/09/01 09:36:58;;;;;;;1.52;0.40;;;;;;;;;;4912121;29;20502;-65
2023/09/01 09:39:24;;;;;;;1.70;0.40;;;;;;;;;;4924469;29;20100;-65
2023/09/01 09:41:51;;;;;;;0.65;0.30;;;;;;;;;;4924592;29;20058;-65
2023/09/01 09:44:29;;;;;;;0.60;0.32;;;;;;;;;;4924118;29;20506;-65
2023/09/01 09:46:55;;;;;;;1.10;0.50;;;;;;;;;;4923909;29;20036;-65
2023/09/01 09:49:23;;;;;;;1.05;0.50;;;;;;;;;;4925172;29;20032;-65
2023/09/01 09:51:52;;;;;;;0.70;0.40;;;;;;;;;;4921023;29;20507;-66
2023/09/01 09:54:21;;;;;;;0.60;0.35;;;;;;;;;;4942650;29;20115;-66
2023/09/01 09:56:51;;;;;;;0.75;0.38;;;;;;;;;;4942519;29;20027;-66
2023/09/01 09:59:36;;;;;;;1.45;0.50;;;;;;;;;;4942648;29;20063;-66
2023/09/01 10:02:06;;;;;;;0.90;0.40;;;;;;;;;;4942787;29;20023;-65
2023/09/01 10:04:34;;;;;;;1.13;0.40;;;;;;;;;;4942622;29;20056;-66
2023/09/01 10:07:00;;;;;;;1.15;0.50;;;;;;;;;;4942723;29;20540;-66
2023/09/01 10:09:27;;;;;;;1.33;0.40;;;;;;;;;;4942192;29;20055;-66
2023/09/01 10:11:54;;;;;;;1.25;0.35;;;;;;;;;;4942209;29;20436;-66
2023/09/01 10:14:23;;;;;;;2.33;0.77;;;;;;;;;;4925264;29;20032;-66
2023/09/01 10:16:50;;;;;;;1.58;0.55;;;;;;;;;;4942527;29;20507;-65
2023/09/01 10:19:18;;;;;;;1.52;0.55;;;;;;;;;;4941508;29;20024;-65
2023/09/01 10:21:45;;;;;;;0.60;0.45;;;;;;;;;;4927308;29;20355;-65
2023/09/01 10:24:16;;;;;;;1.02;0.40;;;;;;;;;;4930052;29;20576;-65
2023/09/01 10:26:43;;;;;;;1.23;0.40;;;;;;;;;;4903745;29;20100;-65
2023/09/01 10:29:10;;;;;;;0.40;0.35;;;;;;;;;;4921780;29;20031;-65
2023/09/01 10:31:36;;;;;;;0.45;0.30;;;;;;;;;;4921962;29;20039;-65
2023/09/01 10:34:05;;;;;;;1.88;0.63;;;;;;;;;;4921995;29;20588;-67
2023/09/01 10:36:31;;;;;;;1.13;0.40;;;;;;;;;;4904884;29;20064;-65
2023/09/01 10:39:03;;;;;;;0.88;0.43;;;;;;;;;;4921603;29;20055;-64
2023/09/01 10:42:07;;;;;;;0.70;0.40;;;;;;;;;;4922744;29;20504;-64
2023/09/01 10:44:42;;;;;;;0.60;0.30;;;;;;;;;;4892036;29;20092;-64
2023/09/01 10:47:27;;;;;;;2.03;0.52;;;;;;;;;;4921705;29;20031;-65
2023/09/01 10:49:56;;;;;;;1.05;0.40;;;;;;;;;;4923126;29;20028;-64
2023/09/01 10:52:23;;;;;;;1.20;0.40;;;;;;;;;;4938535;29;20087;-64
2023/09/01 10:55:03;;;;;;;1.42;0.43;;;;;;;;;;4940587;29;20091;-65
2023/09/01 10:57:42;;;;;;;1.33;0.38;;;;;;;;;;4922294;29;20032;-64
2023/09/01 11:00:25;;;;;;;1.33;0.40;;;;;;;;;;4905046;29;20139;-63
2023/09/01 11:02:51;;;;;;;0.40;0.35;;;;;;;;;;4921849;29;20024;-63
2023/09/01 11:05:36;;;;;;;1.20;0.57;;;;;;;;;;4905225;29;20446;-63
2023/09/01 11:08:14;;;;;;;2.05;0.50;;;;;;;;;;4922035;29;20024;-63
2023/09/01 11:10:40;;;;;;;1.35;0.50;;;;;;;;;;4920648;29;20028;-63
2023/09/01 11:13:13;;;;;;;0.57;0.30;;;;;;;;;;4885712;29;20047;-63
2023/09/01 11:15:46;;;;;;;1.25;0.50;;;;;;;;;;4902125;29;20024;-63
2023/09/01 11:18:22;;;;;;;1.38;0.60;;;;;;;;;;4902954;29;20029;-69
2023/09/01 11:20:49;;;;;;;1.90;0.70;;;;;;;;;;4901974;29;20025;-68
2023/09/01 11:23:22;;;;;;;1.92;0.52;;;;;;;;;;4917651;29;20028;-66
2023/09/01 11:25:57;;;;;;;1.48;0.52;;;;;;;;;;4905527;29;20113;-64
2023/09/01 11:28:23;;;;;;;0.88;0.47;;;;;;;;;;4910804;29;20032;-68
2023/09/01 11:30:53;;;;;;;1.40;0.40;;;;;;;;;;4910927;29;20054;-66
2023/09/01 11:33:20;;;;;;;2.13;0.40;;;;;;;;;;4920636;29;20039;-68
2023/09/01 11:35:46;;;;;;;1.05;0.40;;;;;;;;;;4921312;29;20020;-70
2023/09/01 11:38:19;;;;;;;3.08;1.33;;;;;;;;;;4891280;29;20041;-66
2023/09/01 11:40:47;;;;;;;2.58;0.93;;;;;;;;;;4903773;29;20048;-67
2023/09/01 11:43:13;;;;;;;0.95;0.50;;;;;;;;;;4902257;29;20120;-67
2023/09/01 11:45:48;;;;;;;1.98;0.80;;;;;;;;;;4902712;29;20024;-65
2023/09/01 11:48:22;;;;;;;0.85;0.45;;;;;;;;;;4886629;29;20566;-66
2023/09/01 11:50:48;;;;;;;1.70;0.85;;;;;;;;;;4886098;29;20032;-65
2023/09/01 11:53:32;;;;;;;1.25;0.63;;;;;;;;;;4921283;29;20028;-66
2023/09/01 11:55:59;;;;;;;1.55;0.68;;;;;;;;;;4896850;29;20052;-65
2023/09/01 11:58:34;;;;;;;1.00;0.50;;;;;;;;;;4902387;29;20037;-66
2023/09/01 12:01:10;;;;;;;1.50;0.60;;;;;;;;;;4885625;29;20028;-65
2023/09/01 12:03:39;;;;;;;1.25;0.80;;;;;;;;;;4902591;29;20032;-66
2023/09/01 12:06:15;;;;;;;1.77;0.52;;;;;;;;;;4901934;29;20498;-65
2023/09/01 12:08:41;;;;;;;1.60;0.50;;;;;;;;;;4901592;29;20032;-65
2023/09/01 12:11:07;;;;;;;2.05;0.50;;;;;;;;;;4901446;29;20429;-65
2023/09/01 12:13:33;;;;;;;1.38;0.50;;;;;;;;;;4901730;29;20028;-65
2023/09/01 12:16:00;;;;;;;1.00;0.45;;;;;;;;;;4901777;29;20024;-65
2023/09/01 12:18:34;;;;;;;1.27;0.70;;;;;;;;;;4901645;29;20084;-65
2023/09/01 12:21:01;;;;;;;0.80;0.50;;;;;;;;;;4895216;29;20025;-65
2023/09/01 12:23:27;;;;;;;1.13;0.50;;;;;;;;;;4921013;29;20076;-65
2023/09/01 12:25:53;;;;;;;2.20;1.10;;;;;;;;;;4904687;29;20513;-65
2023/09/01 12:28:19;;;;;;;1.15;0.60;;;;;;;;;;4901840;29;20025;-65
2023/09/01 12:30:45;;;;;;;2.17;0.60;;;;;;;;;;4902064;29;20129;-65
2023/09/01 12:33:11;;;;;;;1.00;0.35;;;;;;;;;;4902318;29;20032;-65
2023/09/01 12:35:40;;;;;;;0.73;0.30;;;;;;;;;;4901862;29;20081;-65
2023/09/01 12:38:06;;;;;;;0.40;0.30;;;;;;;;;;4901673;29;20032;-65
2023/09/01 12:40:32;;;;;;;0.20;0.20;;;;;;;;;;4903074;29;20056;-65
2023/09/01 12:42:58;;;;;;;0.75;0.30;;;;;;;;;;4901373;29;20029;-65
2023/09/01 12:45:24;;;;;;;0.47;0.30;;;;;;;;;;4901845;29;20028;-65
2023/09/01 12:47:50;;;;;;;0.50;0.40;;;;;;;;;;4903373;29;20028;-65
2023/09/01 12:50:16;;;;;;;0.40;0.30;;;;;;;;;;4901921;29;20576;-64
2023/09/01 12:52:42;;;;;;;0.45;0.22;;;;;;;;;;4901785;29;20505;-63
2023/09/01 12:55:08;;;;;;;0.85;0.40;;;;;;;;;;4884591;29;20031;-63
2023/09/01 12:57:34;;;;;;;0.57;0.40;;;;;;;;;;4901877;29;20064;-63
2023/09/01 13:00:00;;;;;;;1.10;0.30;;;;;;;;;;4901864;29;20036;-63
2023/09/01 13:02:26;;;;;;;0.50;0.30;;;;;;;;;;4901764;29;20032;-63
2023/09/01 13:04:55;;;;;;;0.30;0.30;;;;;;;;;;4901897;29;20522;-63
2023/09/01 13:07:21;;;;;;;0.20;0.20;;;;;;;;;;4884773;29;20025;-63
2023/09/01 13:09:47;;;;;;;0.40;0.30;;;;;;;;;;4884606;29;20050;-63
2023/09/01 13:12:13;;;;;;;1.38;0.32;;;;;;;;;;4902311;29;20506;-62
2023/09/01 13:14:42;;;;;;;1.30;0.55;;;;;;;;;;4901758;29;20035;-63
2023/09/01 13:17:09;;;;;;;1.10;0.50;;;;;;;;;;4896490;29;20033;-63
2023/09/01 13:19:35;;;;;;;1.25;0.47;;;;;;;;;;4883688;29;20056;-62
2023/09/01 13:22:02;;;;;;;1.85;0.40;;;;;;;;;;4908438;29;20483;-64
2023/09/01 13:24:28;;;;;;;0.93;0.47;;;;;;;;;;4895935;29;20452;-64
2023/09/01 13:26:54;;;;;;;0.60;0.40;;;;;;;;;;4900334;29;20362;-64
2023/09/01 13:29:20;;;;;;;1.70;0.35;;;;;;;;;;4900904;29;20111;-64
2023/09/01 13:31:46;;;;;;;3.00;0.50;;;;;;;;;;4901305;29;20129;-64
2023/09/01 13:34:12;;;;;;;1.70;0.40;;;;;;;;;;4901000;29;20100;-64
2023/09/01 13:36:38;;;;;;;0.55;0.30;;;;;;;;;;4901367;29;20036;-64
2023/09/01 13:39:04;;;;;;;0.70;0.47;;;;;;;;;;4901287;29;20028;-64
2023/09/01 13:41:30;;;;;;;1.00;0.47;;;;;;;;;;4900526;29;20036;-64
2023/09/01 13:43:56;;;;;;;0.60;0.30;;;;;;;;;;4900729;29;20107;-64
2023/09/01 13:46:27;;;;;;;0.70;0.40;;;;;;;;;;4901266;29;20115;-65
2023/09/01 13:48:53;;;;;;;0.60;0.30;;;;;;;;;;4902818;29;20033;-65
2023/09/01 13:51:21;;;;;;;1.02;0.40;;;;;;;;;;4901662;29;20029;-64
2023/09/01 13:53:47;;;;;;;0.80;0.60;;;;;;;;;;4920180;29;20032;-64
2023/09/01 13:56:13;;;;;;;0.60;0.40;;;;;;;;;;4904357;29;20043;-64
2023/09/01 13:58:39;;;;;;;0.50;0.30;;;;;;;;;;4922455;29;20024;-64
2023/09/01 14:01:05;;;;;;;0.43;0.32;;;;;;;;;;4917318;29;20512;-63
2023/09/01 14:03:31;;;;;;;1.30;0.35;;;;;;;;;;4899159;29;20021;-63
2023/09/01 14:06:00;;;;;;;0.85;0.40;;;;;;;;;;4902971;29;20490;-64
2023/09/01 14:08:28;;;;;;;0.85;0.40;;;;;;;;;;4903385;29;20021;-64
2023/09/01 14:10:54;;;;;;;1.00;0.50;;;;;;;;;;4905428;29;20052;-64
2023/09/01 14:13:20;;;;;;;0.93;0.40;;;;;;;;;;4904812;29;20057;-65
2023/09/01 14:15:50;;;;;;;0.95;0.47;;;;;;;;;;4922082;29;20032;-64
2023/09/01 14:18:17;;;;;;;0.35;0.22;;;;;;;;;;4920850;29;20029;-64
2023/09/01 14:20:43;;;;;;;1.85;0.40;;;;;;;;;;4922013;29;20091;-64
2023/09/01 14:23:09;;;;;;;0.40;0.30;;;;;;;;;;4922575;29;20389;-65
2023/09/01 14:25:35;;;;;;;0.47;0.20;;;;;;;;;;4913657;29;20477;-65
2023/09/01 14:28:01;;;;;;;0.85;0.20;;;;;;;;;;4920441;29;20174;-65
2023/09/01 14:30:28;;;;;;;0.40;0.30;;;;;;;;;;4902178;29;20427;-65
2023/09/01 14:32:54;;;;;;;0.40;0.20;;;;;;;;;;4914834;29;20036;-65
2023/09/01 14:35:20;;;;;;;0.28;0.28;;;;;;;;;;4922873;29;20032;-65
2023/09/01 14:37:46;;;;;;;0.20;0.13;;;;;;;;;;4914075;29;20114;-66
2023/09/01 14:40:13;;;;;;;0.70;0.13;;;;;;;;;;4910033;29;20540;-65
2023/09/01 14:42:39;;;;;;;0.95;0.30;;;;;;;;;;4922350;29;20474;-63
2023/09/01 14:45:06;;;;;;;0.20;0.10;;;;;;;;;;4922594;29;20028;-63